Time;durP1;ratioP1;P1;durP2;ratioP2;P2;SDS_P1;SDS_P2;PMS_P1;PMS_P2;Temp;Humidity;BMP_temperature;BMP_pressure;BME280_temperature;BME280_humidity;BME280_pressure;Samples;Min_cycle;Max_cycle;Signal;HPM_P1;HPM_P2
2022/12/25 00:00:06;;;;;;;29.37;8.90;;;;;;;5.01;100.00;100901.78;5019857;28;20120;-72
2022/12/25 00:02:31;;;;;;;;;;;;;;;4.98;100.00;100913.47;5006404;28;20033;-72
2022/12/25 00:04:56;;;;;;;28.63;7.10;;;;;;;4.98;100.00;100910.81;5006144;28;20394;-72
2022/12/25 00:07:22;;;;;;;20.57;7.10;;;;;;;4.97;100.00;100919.72;5006530;28;20229;-72
2022/12/25 00:09:47;;;;;;;33.03;8.27;;;;;;;4.97;100.00;100917.09;5005620;28;20286;-72
2022/12/25 00:12:13;;;;;;;27.93;8.20;;;;;;;4.99;100.00;100915.16;5009328;28;20042;-72
2022/12/25 00:14:38;;;;;;;35.93;7.03;;;;;;;4.94;100.00;100917.34;5011802;28;20033;-72
2022/12/25 00:17:03;;;;;;;28.93;7.90;;;;;;;4.90;100.00;100912.41;5011436;28;20293;-72
2022/12/25 00:19:28;;;;;;;31.47;8.50;;;;;;;4.86;100.00;100917.09;5003733;28;20025;-72
2022/12/25 00:21:54;;;;;;;27.87;8.47;;;;;;;4.87;100.00;100910.84;5021022;28;20418;-72
2022/12/25 00:24:19;;;;;;;30.30;7.27;;;;;;;4.84;100.00;100908.44;4988184;28;20445;-72
2022/12/25 00:26:44;;;;;;;27.10;6.13;;;;;;;4.83;100.00;100912.06;5004287;28;20502;-72
2022/12/25 00:29:11;;;;;;;33.67;7.03;;;;;;;4.82;100.00;100919.16;4997010;28;20041;-72
2022/12/25 00:31:37;;;;;;;31.20;7.45;;;;;;;4.82;100.00;100915.63;5007390;28;20037;-72
2022/12/25 00:34:02;;;;;;;33.53;8.53;;;;;;;4.90;100.00;100923.00;4988170;28;20107;-72
2022/12/25 00:36:27;;;;;;;28.43;7.80;;;;;;;4.92;100.00;100918.44;4977869;28;20037;-71
2022/12/25 00:38:53;;;;;;;37.17;9.27;;;;;;;4.94;100.00;100916.47;5007986;28;20276;-71
2022/12/25 00:42:17;;;;;;;32.57;9.17;;;;;;;4.93;100.00;100920.94;5004601;28;20510;-72
2022/12/25 00:44:09;;;;;;;33.50;8.20;;;;;;;4.90;100.00;100921.19;5002187;28;20634;-72
2022/12/25 00:46:35;;;;;;;28.60;8.25;;;;;;;4.95;100.00;100919.00;5007715;28;20117;-72
2022/12/25 00:49:01;;;;;;;38.10;9.45;;;;;;;5.00;100.00;100911.53;5010160;28;20118;-72
2022/12/25 00:51:27;;;;;;;28.33;8.65;;;;;;;5.05;100.00;100909.38;4991940;28;20030;-72
2022/12/25 00:53:52;;;;;;;30.23;8.05;;;;;;;5.07;100.00;100911.91;5024899;28;20057;-72
2022/12/25 00:56:18;;;;;;;33.07;8.40;;;;;;;5.04;100.00;100912.97;5025524;28;20473;-71
2022/12/25 00:58:43;;;;;;;33.13;7.97;;;;;;;5.08;100.00;100918.88;5023667;28;20080;-72
2022/12/25 01:01:10;;;;;;;27.97;8.17;;;;;;;5.07;100.00;100925.97;5008766;28;20065;-72
2022/12/25 01:03:36;;;;;;;44.83;9.75;;;;;;;5.06;100.00;100926.94;4997490;28;20445;-72
2022/12/25 01:06:05;;;;;;;30.00;8.18;;;;;;;5.13;100.00;100927.28;4987705;28;20026;-71
2022/12/25 01:08:33;;;;;;;34.55;8.25;;;;;;;5.10;100.00;100924.03;5013169;28;20034;-72
2022/12/25 01:11:04;;;;;;;26.70;7.85;;;;;;;5.11;100.00;100928.38;5014547;28;20044;-72
2022/12/25 01:13:30;;;;;;;36.33;8.32;;;;;;;5.15;100.00;100929.81;5015531;28;20487;-72
2022/12/25 01:15:56;;;;;;;;;;;;;;;5.15;100.00;100933.31;5016550;28;20029;-72
2022/12/25 01:18:23;;;;;;;27.42;7.38;;;;;;;5.13;100.00;100929.94;5011781;28;19916;-72
2022/12/25 01:20:48;;;;;;;38.38;11.85;;;;;;;5.11;100.00;100928.38;5010935;28;20022;-72
2022/12/25 01:23:14;;;;;;;20.40;8.40;;;;;;;5.12;100.00;100924.75;5009829;28;20084;-72
2022/12/25 01:25:39;;;;;;;47.35;9.25;;;;;;;5.10;100.00;100924.88;5016869;28;20133;-72
2022/12/25 01:28:05;;;;;;;26.75;8.43;;;;;;;5.12;100.00;100930.06;5007512;28;20045;-72
2022/12/25 01:30:30;;;;;;;25.63;8.33;;;;;;;5.11;100.00;100944.25;5018864;28;20497;-72
2022/12/25 01:32:56;;;;;;;28.33;7.63;;;;;;;5.14;100.00;100928.13;5008421;28;20149;-72
2022/12/25 01:35:21;;;;;;;29.23;8.82;;;;;;;5.15;100.00;100946.53;5010944;28;20038;-72
2022/12/25 01:37:47;;;;;;;29.13;7.73;;;;;;;5.12;100.00;100935.34;5013459;28;20033;-72
2022/12/25 01:40:12;;;;;;;37.67;8.60;;;;;;;5.13;100.00;100937.03;5013175;28;21130;-72
2022/12/25 01:42:37;;;;;;;30.87;7.63;;;;;;;5.09;100.00;100936.44;5022598;28;20025;-72
2022/12/25 01:45:32;;;;;;;25.60;7.87;;;;;;;5.06;100.00;100929.59;5012191;28;20312;-72
2022/12/25 01:47:59;;;;;;;37.37;7.87;;;;;;;5.07;100.00;100933.91;5015656;28;20139;-72
2022/12/25 01:50:25;;;;;;;35.50;7.18;;;;;;;5.08;100.00;100935.59;5016407;28;20529;-71
2022/12/25 01:52:51;;;;;;;;;;;;;;;5.08;100.00;100940.91;5023747;28;21355;-72
2022/12/25 01:55:17;;;;;;;26.27;7.32;;;;;;;5.07;100.00;100936.56;5017871;28;19913;-71
2022/12/25 01:57:43;;;;;;;29.55;7.97;;;;;;;5.08;100.00;100945.34;4999002;28;20184;-71
2022/12/25 02:00:10;;;;;;;26.77;6.93;;;;;;;5.10;100.00;100946.03;5013956;28;20465;-71
2022/12/25 02:02:36;;;;;;;35.63;8.50;;;;;;;5.18;100.00;100953.41;5009118;28;20068;-72
2022/12/25 02:05:19;;;;;;;28.35;7.18;;;;;;;5.22;100.00;100952.16;5015014;28;20038;-72
2022/12/25 02:07:45;;;;;;;25.05;8.18;;;;;;;5.20;100.00;100960.25;5014321;28;20042;-72
2022/12/25 02:10:11;;;;;;;22.17;6.97;;;;;;;5.24;100.00;100958.19;5013905;28;20022;-72
2022/12/25 02:12:38;;;;;;;32.05;8.50;;;;;;;5.29;100.00;100958.66;5003458;28;20402;-72
2022/12/25 02:15:12;;;;;;;;;;;;;;;5.27;100.00;100955.31;5004449;28;20461;-72
2022/12/25 02:17:40;;;;;;;28.75;7.75;;;;;;;5.27;100.00;100955.31;5018691;28;19923;-72
2022/12/25 02:20:32;;;;;;;29.75;6.95;;;;;;;5.27;100.00;100956.16;5006741;28;20461;-72
2022/12/25 02:23:19;;;;;;;26.98;7.55;;;;;;;5.26;100.00;100943.03;5014020;28;20185;-73
2022/12/25 02:26:29;;;;;;;20.23;6.28;;;;;;;5.33;100.00;100951.31;5014822;28;20057;-72
2022/12/25 02:28:58;;;;;;;33.72;7.25;;;;;;;5.31;100.00;100969.13;5014240;28;20438;-72
2022/12/25 02:31:45;;;;;;;33.90;7.15;;;;;;;5.24;100.00;100972.28;5008737;28;20131;-72
2022/12/25 02:34:19;;;;;;;27.10;5.75;;;;;;;5.25;100.00;100967.81;5012878;28;20042;-72
2022/12/25 02:36:55;;;;;;;34.53;8.38;;;;;;;5.24;100.00;100967.00;5014500;28;20041;-72
2022/12/25 02:39:59;;;;;;;30.58;8.68;;;;;;;5.17;100.00;100965.75;5007791;28;20051;-72
2022/12/25 03:06:41;;;;;;;25.40;7.53;;;;;;;5.09;100.00;100973.50;5016775;28;20038;-72
2022/12/25 03:07:22;;;;;;;43.88;10.75;;;;;;;5.05;100.00;101011.75;5019376;28;20034;-72
2022/12/25 03:12:52;;;;;;;39.20;10.15;;;;;;;4.96;100.00;101023.88;5023305;28;20044;-74
2022/12/25 03:18:08;;;;;;;36.28;11.13;;;;;;;4.98;100.00;101023.75;5018077;28;20142;-75
2022/12/25 03:28:51;;;;;;;40.95;14.85;;;;;;;4.91;100.00;101018.09;5013852;28;20115;-72
2022/12/25 03:31:19;;;;;;;51.30;15.63;;;;;;;4.96;100.00;101026.53;5023878;28;20381;-72
2022/12/25 03:40:31;;;;;;;72.38;21.00;;;;;;;4.87;100.00;101011.38;5015962;28;20050;-75
2022/12/25 04:37:49;;;;;;;126.13;31.95;;;;;;;4.68;100.00;100997.88;5011391;28;20033;-74
2022/12/25 04:40:15;;;;;;;100.43;28.53;;;;;;;4.64;100.00;100992.84;5013717;28;20025;-71
2022/12/25 04:42:40;;;;;;;103.82;31.20;;;;;;;4.65;100.00;100991.03;5014124;28;20037;-74
2022/12/25 04:45:06;;;;;;;111.43;29.80;;;;;;;4.53;100.00;100997.25;5011218;28;20040;-74
2022/12/25 04:47:32;;;;;;;121.93;33.95;;;;;;;4.60;100.00;101001.97;5014928;28;20088;-73
2022/12/25 04:49:57;;;;;;;119.80;32.45;;;;;;;4.60;100.00;101004.59;5012326;28;20575;-74
2022/12/25 04:52:22;;;;;;;106.87;32.87;;;;;;;4.59;100.00;100994.16;4975926;28;20045;-72
2022/12/25 04:54:48;;;;;;;129.20;35.33;;;;;;;4.62;100.00;100996.56;5023021;28;20068;-71
2022/12/25 04:57:14;;;;;;;129.80;31.20;;;;;;;4.72;100.00;101009.91;5011767;28;20033;-72
2022/12/25 04:59:39;;;;;;;;;;;;;;;4.70;100.00;101015.31;5017366;28;20024;-74
2022/12/25 05:02:05;;;;;;;114.90;31.70;;;;;;;4.77;100.00;101018.34;5010939;28;19913;-75
2022/12/25 05:04:30;;;;;;;101.60;30.23;;;;;;;4.81;100.00;101020.63;5014437;28;20046;-72
2022/12/25 05:06:55;;;;;;;109.10;32.47;;;;;;;4.75;100.00;101013.19;5008938;28;20124;-72
2022/12/25 05:09:21;;;;;;;134.70;35.47;;;;;;;4.63;100.00;101014.94;5008288;28;20048;-72
2022/12/25 05:11:46;;;;;;;143.07;34.30;;;;;;;4.48;100.00;101000.25;5009105;28;20276;-72
2022/12/25 05:14:11;;;;;;;139.83;34.03;;;;;;;4.35;100.00;100981.00;5014897;28;20125;-72
2022/12/25 05:16:37;;;;;;;206.57;36.37;;;;;;;4.28;100.00;100982.41;5009367;28;20030;-72
2022/12/25 05:19:02;;;;;;;258.13;41.67;;;;;;;4.18;100.00;100971.69;5012312;28;20391;-72
2022/12/25 05:21:27;;;;;;;266.30;41.60;;;;;;;4.09;100.00;100975.03;5015470;28;20049;-72
2022/12/25 05:23:53;;;;;;;315.67;42.03;;;;;;;4.09;100.00;100980.31;5011957;28;20111;-72
2022/12/25 05:26:24;;;;;;;261.63;41.67;;;;;;;4.00;100.00;100979.19;5009082;28;20038;-72
2022/12/25 05:28:50;;;;;;;154.07;35.78;;;;;;;4.04;100.00;100987.75;5026316;28;20029;-72
2022/12/25 05:31:15;;;;;;;325.10;46.83;;;;;;;4.11;100.00;100992.44;5015628;28;20403;-72
2022/12/25 05:33:41;;;;;;;180.48;37.25;;;;;;;4.06;100.00;100988.47;5019782;28;20033;-72
2022/12/25 05:36:09;;;;;;;187.20;39.80;;;;;;;4.07;100.00;100991.00;5009129;28;20049;-72
2022/12/25 05:38:34;;;;;;;301.85;45.28;;;;;;;4.08;100.00;100992.69;5005625;28;20037;-72
2022/12/25 05:41:00;;;;;;;248.10;41.43;;;;;;;4.05;100.00;100981.50;5017454;28;20038;-72
2022/12/25 05:43:26;;;;;;;176.27;37.88;;;;;;;4.03;100.00;100986.91;5019142;28;20296;-72
2022/12/25 05:45:52;;;;;;;379.80;50.00;;;;;;;4.03;100.00;100979.00;5015698;28;20060;-71
2022/12/25 05:48:17;;;;;;;197.43;37.72;;;;;;;4.07;100.00;100993.63;5016991;28;20535;-71
2022/12/25 05:50:43;;;;;;;151.13;35.72;;;;;;;4.12;100.00;100994.16;5017024;28;20041;-72
2022/12/25 05:53:11;;;;;;;287.17;46.78;;;;;;;4.05;100.00;100995.56;5016082;28;20030;-71
2022/12/25 05:55:38;;;;;;;309.50;46.63;;;;;;;3.91;100.00;100980.75;5017647;28;20041;-70
2022/12/25 05:58:04;;;;;;;246.43;41.97;;;;;;;4.01;100.00;100980.91;5012199;28;20033;-73
2022/12/25 06:00:30;;;;;;;166.75;36.28;;;;;;;3.99;100.00;100988.94;5020785;28;20108;-71
2022/12/25 06:02:55;;;;;;;175.98;36.38;;;;;;;3.99;100.00;100990.72;5015333;28;20125;-71
2022/12/25 06:05:21;;;;;;;318.67;44.47;;;;;;;3.89;100.00;100977.38;5016874;28;20092;-75
2022/12/25 06:07:46;;;;;;;297.77;44.00;;;;;;;3.91;100.00;100986.03;5016723;28;20124;-71
2022/12/25 06:10:11;;;;;;;155.90;34.93;;;;;;;3.91;100.00;100985.16;5015489;28;20045;-73
2022/12/25 06:12:37;;;;;;;188.07;37.53;;;;;;;3.88;100.00;100972.19;5017751;28;20064;-70
2022/12/25 06:15:03;;;;;;;216.70;40.63;;;;;;;3.76;100.00;100972.13;5010189;28;20037;-73
2022/12/25 06:17:28;;;;;;;167.73;35.05;;;;;;;3.71;100.00;100979.56;5018590;28;20136;-71
2022/12/25 06:19:53;;;;;;;150.27;32.60;;;;;;;3.67;100.00;100967.53;5013990;28;20590;-71
2022/12/25 06:22:19;;;;;;;151.02;30.73;;;;;;;3.64;100.00;100977.47;4998878;28;20544;-71
2022/12/25 06:24:44;;;;;;;130.47;31.43;;;;;;;3.73;100.00;100980.28;5002531;28;20198;-71
2022/12/25 06:27:09;;;;;;;152.37;32.57;;;;;;;3.72;100.00;100985.69;4997470;28;20064;-71
2022/12/25 06:29:35;;;;;;;161.63;33.30;;;;;;;3.78;100.00;100983.44;5017356;28;20517;-71
2022/12/25 06:32:00;;;;;;;100.90;23.50;;;;;;;3.75;100.00;100980.19;5014707;28;20494;-71
2022/12/25 06:34:26;;;;;;;175.73;36.20;;;;;;;3.67;100.00;100982.53;5008871;28;20315;-71
2022/12/25 06:36:51;;;;;;;157.18;31.88;;;;;;;3.64;100.00;100978.31;5015197;28;20105;-73
2022/12/25 06:39:17;;;;;;;205.45;33.58;;;;;;;3.75;100.00;100969.63;5015865;28;20038;-73
2022/12/25 06:41:43;;;;;;;151.48;34.55;;;;;;;3.67;100.00;100978.09;5015251;28;20116;-71
2022/12/25 06:44:08;;;;;;;141.45;28.67;;;;;;;3.66;100.00;100971.13;5014484;28;20048;-73
2022/12/25 06:46:34;;;;;;;154.37;29.93;;;;;;;3.65;100.00;100968.59;5016157;28;20037;-70
2022/12/25 06:49:00;;;;;;;139.68;31.73;;;;;;;3.63;100.00;100971.38;4985234;28;20032;-73
2022/12/25 06:51:28;;;;;;;123.53;29.25;;;;;;;3.66;100.00;100965.03;5017209;28;20071;-73
2022/12/25 06:53:54;;;;;;;109.97;27.90;;;;;;;3.74;100.00;100971.41;4998065;28;20037;-72
2022/12/25 06:56:22;;;;;;;;;;;;;;;3.66;100.00;100976.41;5002040;28;20029;-71
2022/12/25 06:59:03;;;;;;;154.70;29.35;;;;;;;3.67;100.00;100986.00;5012192;28;19917;-71
2022/12/25 07:01:35;;;;;;;114.80;26.50;;;;;;;3.75;100.00;100983.66;5017079;28;20483;-71
2022/12/25 07:04:15;;;;;;;102.82;28.45;;;;;;;3.67;100.00;100977.25;5017747;28;20042;-71
2022/12/25 07:06:41;;;;;;;93.22;26.05;;;;;;;3.72;100.00;100973.34;5025120;28;20059;-71
2022/12/25 07:09:06;;;;;;;115.17;27.47;;;;;;;3.81;100.00;100979.72;5015753;28;20483;-71
2022/12/25 07:11:31;;;;;;;105.00;25.97;;;;;;;3.76;100.00;100974.78;5013925;28;20773;-71
2022/12/25 07:13:57;;;;;;;102.10;25.30;;;;;;;3.81;100.00;100977.91;5010686;28;20085;-71
2022/12/25 07:16:22;;;;;;;74.37;24.17;;;;;;;3.80;100.00;100992.09;5007438;28;20037;-71
2022/12/25 07:18:48;;;;;;;101.50;28.97;;;;;;;3.74;100.00;100986.41;5007846;28;20041;-71
2022/12/25 07:21:16;;;;;;;74.82;22.30;;;;;;;3.75;100.00;100991.59;5004734;28;20036;-71
2022/12/25 07:23:42;;;;;;;72.50;24.05;;;;;;;3.94;100.00;101003.44;5011842;28;20062;-71
2022/12/25 07:26:09;;;;;;;91.10;23.27;;;;;;;3.94;100.00;101006.09;5009679;28;20029;-71
2022/12/25 07:28:35;;;;;;;70.05;24.48;;;;;;;3.91;100.00;101006.28;5012492;28;20052;-72
2022/12/25 07:31:06;;;;;;;77.40;23.20;;;;;;;3.95;100.00;101002.47;5011771;28;20033;-71
2022/12/25 07:33:32;;;;;;;63.22;21.73;;;;;;;3.91;100.00;101001.88;5015192;28;20152;-72
2022/12/25 07:35:58;;;;;;;65.28;21.95;;;;;;;3.89;100.00;100998.50;4983932;28;20073;-70
2022/12/25 07:38:24;;;;;;;83.18;23.70;;;;;;;3.83;100.00;100995.47;5008146;28;20118;-73
2022/12/25 07:40:49;;;;;;;72.47;22.77;;;;;;;3.80;100.00;101000.00;5019032;28;20037;-72
2022/12/25 07:43:14;;;;;;;73.60;22.17;;;;;;;3.78;100.00;100999.28;5005698;28;20337;-73
2022/12/25 07:45:40;;;;;;;68.30;19.77;;;;;;;3.82;100.00;101013.13;5020862;28;20493;-73
2022/12/25 07:48:05;;;;;;;60.07;19.73;;;;;;;3.88;100.00;101006.53;5011873;28;20451;-74
2022/12/25 07:50:31;;;;;;;50.40;20.17;;;;;;;3.85;100.00;101019.97;5018312;28;20037;-72
2022/12/25 07:52:56;;;;;;;52.72;18.77;;;;;;;3.80;100.00;101012.38;5003092;28;20061;-74
2022/12/25 07:55:22;;;;;;;61.85;19.30;;;;;;;3.87;100.00;101015.41;5015059;28;20043;-72
2022/12/25 07:57:47;;;;;;;63.30;20.30;;;;;;;3.89;100.00;101018.78;5012977;28;20025;-74
2022/12/25 08:00:13;;;;;;;52.10;18.03;;;;;;;3.93;100.00;101018.47;5018909;28;20705;-70
2022/12/25 08:02:38;;;;;;;61.97;18.10;;;;;;;4.00;100.00;101013.53;5006714;28;20037;-74
2022/12/25 08:05:05;;;;;;;53.23;19.63;;;;;;;4.04;100.00;101004.44;5011776;28;20400;-71
2022/12/25 08:07:30;;;;;;;56.97;17.35;;;;;;;4.04;100.00;101001.78;5015451;28;20029;-71
2022/12/25 08:09:55;;;;;;;50.83;17.67;;;;;;;4.04;100.00;101001.78;5015982;28;20099;-75
2022/12/25 08:12:21;;;;;;;55.90;17.60;;;;;;;4.13;100.00;100995.00;5007551;28;20101;-75
2022/12/25 08:14:46;;;;;;;47.37;17.50;;;;;;;4.12;100.00;101004.72;4995780;28;20104;-72
2022/12/25 08:17:11;;;;;;;58.90;17.87;;;;;;;4.15;100.00;100993.91;5012731;28;20033;-74
2022/12/25 08:19:37;;;;;;;53.50;17.90;;;;;;;4.16;100.00;100990.31;5007526;28;20026;-74
2022/12/25 08:22:02;;;;;;;45.20;15.77;;;;;;;4.13;100.00;100977.34;4994350;28;20034;-74
2022/12/25 08:24:27;;;;;;;44.55;16.33;;;;;;;4.21;100.00;100992.59;5002284;28;20037;-70
2022/12/25 08:26:53;;;;;;;52.33;16.67;;;;;;;4.33;100.00;100994.34;4996458;28;20501;-72
2022/12/25 08:29:18;;;;;;;44.17;15.47;;;;;;;4.28;100.00;100985.91;5016310;28;20296;-72
2022/12/25 08:31:44;;;;;;;46.43;16.00;;;;;;;4.22;100.00;100973.16;4999159;28;20033;-72
2022/12/25 08:34:10;;;;;;;40.47;15.48;;;;;;;4.29;100.00;100970.91;5011678;28;20330;-72
2022/12/25 08:36:36;;;;;;;;;;;;;;;4.39;100.00;100967.41;5014201;28;20029;-72
2022/12/25 08:39:02;;;;;;;43.60;16.83;;;;;;;4.42;100.00;100963.69;5000434;28;19956;-72
2022/12/25 08:41:27;;;;;;;43.28;16.38;;;;;;;4.51;100.00;100949.78;5005437;28;20032;-72
2022/12/25 08:43:53;;;;;;;41.03;15.23;;;;;;;4.53;100.00;100947.03;5003672;28;20403;-76
2022/12/25 08:46:19;;;;;;;40.47;14.68;;;;;;;4.56;100.00;100950.25;5005574;28;20115;-73
2022/12/25 08:48:46;;;;;;;45.67;15.50;;;;;;;4.69;100.00;100951.97;5019363;28;20033;-73
2022/12/25 08:51:13;;;;;;;38.25;14.25;;;;;;;4.68;100.00;100937.88;5005558;28;20041;-74
2022/12/25 08:53:43;;;;;;;47.70;15.07;;;;;;;4.77;100.00;100949.56;5013734;28;20231;-74
2022/12/25 08:56:08;;;;;;;32.25;12.70;;;;;;;4.85;100.00;100944.53;5008885;28;20498;-73
2022/12/25 08:58:34;;;;;;;38.75;13.63;;;;;;;5.03;100.00;100944.84;5017851;28;20044;-72
2022/12/25 09:00:59;;;;;;;38.28;13.95;;;;;;;5.03;100.00;100953.66;5009352;28;20067;-73
2022/12/25 09:03:25;;;;;;;40.33;13.98;;;;;;;5.01;100.00;100934.41;5010200;28;20030;-72
2022/12/25 09:05:52;;;;;;;41.13;13.93;;;;;;;5.01;100.00;100923.81;5025083;28;20037;-71
2022/12/25 09:08:20;;;;;;;31.75;12.30;;;;;;;4.91;100.00;100922.03;5018251;28;20042;-73
2022/12/25 09:10:46;;;;;;;43.30;14.95;;;;;;;4.83;100.00;100914.69;5008690;28;20495;-73
2022/12/25 09:13:11;;;;;;;41.05;13.00;;;;;;;4.85;100.00;100910.97;5011595;28;20040;-73
2022/12/25 09:15:38;;;;;;;34.03;12.27;;;;;;;5.01;100.00;100907.94;5004041;28;20132;-72
2022/12/25 09:18:04;;;;;;;43.63;12.45;;;;;;;4.98;100.00;100907.34;5007447;28;20038;-73
2022/12/25 09:20:29;;;;;;;39.72;13.95;;;;;;;4.88;100.00;100912.53;5000081;28;20033;-70
2022/12/25 09:22:55;;;;;;;41.73;11.93;;;;;;;4.97;100.00;100900.38;4991244;28;20041;-71
2022/12/25 09:25:20;;;;;;;42.33;12.70;;;;;;;4.99;100.00;100896.63;5019125;28;20295;-72
2022/12/25 09:27:45;;;;;;;43.47;14.00;;;;;;;5.03;100.00;100892.78;5006108;28;20038;-72
2022/12/25 09:30:11;;;;;;;34.40;11.57;;;;;;;5.00;100.00;100886.91;5010875;28;20140;-73
2022/12/25 09:32:39;;;;;;;34.95;11.07;;;;;;;5.11;100.00;100883.41;5005895;28;20038;-72
2022/12/25 09:35:08;;;;;;;32.40;10.35;;;;;;;5.21;100.00;100892.25;4990474;28;20407;-74
2022/12/25 09:37:33;;;;;;;33.45;12.30;;;;;;;5.31;100.00;100901.13;5014989;28;20034;-72
2022/12/25 09:39:59;;;;;;;30.92;10.52;;;;;;;5.25;100.00;100894.53;5017126;28;20048;-72
2022/12/25 09:42:28;;;;;;;35.43;12.80;;;;;;;5.33;100.00;100890.44;5017601;28;20117;-71
2022/12/25 09:45:03;;;;;;;29.55;11.70;;;;;;;5.43;100.00;100897.50;5011543;28;20042;-72
2022/12/25 09:47:32;;;;;;;31.10;9.27;;;;;;;5.41;100.00;100896.78;5003258;28;20450;-73
2022/12/25 09:50:12;;;;;;;41.28;11.82;;;;;;;5.37;100.00;100890.06;4997142;28;20478;-73
2022/12/25 09:53:13;;;;;;;33.10;11.15;;;;;;;5.47;100.00;100887.47;5005960;28;20037;-75
2022/12/25 09:55:47;;;;;;;34.20;10.90;;;;;;;5.44;100.00;100877.16;4995729;28;20103;-74
2022/12/25 09:58:13;;;;;;;32.45;11.13;;;;;;;5.37;100.00;100874.16;5014318;28;20547;-75
2022/12/25 10:00:48;;;;;;;27.83;11.60;;;;;;;5.28;100.00;100878.41;5016846;28;20033;-71
2022/12/25 10:03:38;;;;;;;33.73;11.97;;;;;;;5.26;100.00;100890.06;5016858;28;20066;-70
2022/12/25 10:06:19;;;;;;;30.83;11.40;;;;;;;5.33;100.00;100896.56;5016896;28;20911;-74
2022/12/25 10:09:34;;;;;;;34.20;10.48;;;;;;;5.47;100.00;100893.63;5008881;28;20053;-71
2022/12/25 10:12:22;;;;;;;40.70;12.35;;;;;;;5.45;100.00;100895.53;4930241;29;20063;-73
2022/12/25 10:15:43;;;;;;;32.75;10.43;;;;;;;5.52;100.00;100901.19;4939569;29;20052;-74
2022/12/25 10:18:35;;;;;;;38.83;12.20;;;;;;;5.47;100.00;100906.03;4925834;29;20195;-71
2022/12/25 10:21:03;;;;;;;40.60;14.68;;;;;;;5.39;100.00;100898.72;4936693;29;20678;-71
2022/12/25 10:23:34;;;;;;;31.33;10.32;;;;;;;5.38;100.00;100898.81;4936222;29;20031;-71
2022/12/25 10:26:00;;;;;;;40.10;13.98;;;;;;;5.38;100.00;100899.66;4931740;29;20042;-72
2022/12/25 10:28:33;;;;;;;33.33;11.07;;;;;;;5.39;100.00;100900.53;4947122;29;20117;-73
2022/12/25 10:31:13;;;;;;;49.17;14.35;;;;;;;5.29;100.00;100892.47;4941742;29;20046;-72
2022/12/25 10:33:38;;;;;;;35.55;12.07;;;;;;;5.26;100.00;100896.22;4930475;29;20129;-72
2022/12/25 10:36:05;;;;;;;32.03;12.23;;;;;;;5.33;100.00;100895.72;4942955;29;20466;-71
2022/12/25 10:38:31;;;;;;;35.60;11.57;;;;;;;5.18;100.00;100885.41;4916672;29;20126;-71
2022/12/25 10:41:20;;;;;;;34.38;12.60;;;;;;;5.28;100.00;100883.69;4936064;29;20130;-72
2022/12/25 10:43:45;;;;;;;37.20;12.68;;;;;;;5.20;100.00;100878.19;4944989;29;20525;-71
2022/12/25 10:46:13;;;;;;;42.50;12.90;;;;;;;5.12;100.00;100872.66;4930421;29;20074;-72
2022/12/25 10:48:50;;;;;;;38.90;13.32;;;;;;;5.20;100.00;100886.13;4993623;28;20056;-73
2022/12/25 10:51:35;;;;;;;36.55;12.57;;;;;;;5.10;100.00;100869.28;5017455;28;20045;-71
2022/12/25 10:54:16;;;;;;;38.67;13.82;;;;;;;5.25;100.00;100873.34;5023459;28;20061;-72
2022/12/25 10:56:52;;;;;;;34.90;13.70;;;;;;;5.12;100.00;100864.72;5020002;28;20775;-74
2022/12/25 10:59:17;;;;;;;38.25;14.40;;;;;;;5.14;100.00;100864.63;5017362;28;20033;-72
2022/12/25 11:01:43;;;;;;;37.27;11.60;;;;;;;5.12;100.00;100856.78;5008724;28;20032;-72
2022/12/25 11:04:18;;;;;;;37.07;13.13;;;;;;;5.12;100.00;100859.44;5018305;28;20323;-70
2022/12/25 11:06:55;;;;;;;34.92;12.63;;;;;;;5.14;100.00;100868.09;5023497;28;20374;-70
2022/12/25 11:09:20;;;;;;;36.58;12.90;;;;;;;5.11;100.00;100864.88;5010440;28;20096;-70
2022/12/25 11:11:46;;;;;;;44.95;12.27;;;;;;;5.17;100.00;100859.88;5009442;28;20034;-70
2022/12/25 11:14:19;;;;;;;35.42;11.73;;;;;;;5.18;100.00;100851.00;5020652;28;20030;-71
2022/12/25 11:16:45;;;;;;;39.85;14.55;;;;;;;5.29;100.00;100858.91;5026572;28;20041;-71
2022/12/25 11:19:30;;;;;;;38.92;11.52;;;;;;;5.34;100.00;100861.19;5026622;28;20604;-71
2022/12/25 11:21:57;;;;;;;;;;;;;;;5.38;100.00;100853.81;5021503;28;20034;-71
2022/12/25 11:24:26;;;;;;;26.40;11.60;;;;;;;5.29;100.00;100847.47;5019251;28;19922;-74
2022/12/25 11:26:55;;;;;;;32.40;11.50;;;;;;;5.39;100.00;100836.97;4997564;28;20061;-72
2022/12/25 11:29:55;;;;;;;30.17;12.55;;;;;;;5.39;100.00;100831.69;5006652;28;20025;-70
2022/12/25 11:32:30;;;;;;;32.70;13.15;;;;;;;5.28;100.00;100814.84;4978921;28;20045;-70
2022/12/25 11:34:56;;;;;;;38.97;11.65;;;;;;;5.28;100.00;100814.03;5011680;28;20030;-73
2022/12/25 11:37:34;;;;;;;30.27;13.43;;;;;;;5.40;100.00;100826.25;5018363;28;20095;-72
2022/12/25 11:40:00;;;;;;;30.45;14.23;;;;;;;5.49;100.00;100828.13;5019381;28;20025;-70
2022/12/25 11:42:33;;;;;;;27.73;11.15;;;;;;;5.55;100.00;100831.22;5025917;28;20057;-74
2022/12/25 11:45:06;;;;;;;43.58;12.77;;;;;;;5.50;100.00;100819.25;5010332;28;20497;-70
2022/12/25 11:47:56;;;;;;;35.08;11.48;;;;;;;5.61;100.00;100813.03;5018581;28;20048;-73
2022/12/25 11:50:33;;;;;;;38.17;11.68;;;;;;;5.60;100.00;100805.22;5006358;28;20041;-72
2022/12/25 11:53:02;;;;;;;27.58;12.30;;;;;;;5.54;100.00;100803.06;5000935;28;20044;-72
2022/12/25 11:55:37;;;;;;;31.45;12.70;;;;;;;5.38;100.00;100799.03;5009790;28;20069;-74
2022/12/25 11:58:14;;;;;;;33.60;11.10;;;;;;;5.41;100.00;100804.09;5013810;28;20827;-76
2022/12/25 12:00:41;;;;;;;31.55;11.15;;;;;;;5.50;100.00;100807.78;5015661;28;20033;-70
2022/12/25 12:03:24;;;;;;;28.52;10.73;;;;;;;5.56;100.00;100811.75;5026342;28;20037;-70
2022/12/25 12:05:58;;;;;;;20.17;11.00;;;;;;;5.64;100.00;100809.28;5006203;28;20045;-70
2022/12/25 12:08:24;;;;;;;33.75;11.85;;;;;;;5.60;100.00;100815.81;5007484;28;20048;-70
2022/12/25 12:11:19;;;;;;;24.27;11.32;;;;;;;5.57;100.00;100822.22;5026617;28;20037;-71
2022/12/25 12:14:03;;;;;;;;;;;;;;;5.55;100.00;100829.44;5024512;28;20041;-70
2022/12/25 12:16:29;;;;;;;31.38;11.50;;;;;;;5.54;100.00;100833.03;5025451;28;20015;-71
2022/12/25 12:18:55;;;;;;;34.03;11.55;;;;;;;5.55;100.00;100829.44;5016881;28;20096;-71
2022/12/25 12:21:27;;;;;;;30.95;10.85;;;;;;;5.52;100.00;100826.19;5021107;28;20033;-72
2022/12/25 12:24:02;;;;;;;24.48;10.35;;;;;;;5.55;100.00;100834.75;5019515;28;20048;-73
2022/12/25 12:26:33;;;;;;;35.60;12.10;;;;;;;5.48;100.00;100828.28;5013849;28;20034;-72
2022/12/25 12:29:01;;;;;;;33.85;12.18;;;;;;;5.52;100.00;100826.19;5008410;28;20048;-71
2022/12/25 12:31:48;;;;;;;35.97;11.82;;;;;;;5.46;100.00;100817.81;5010014;28;20112;-70
2022/12/25 12:34:26;;;;;;;27.85;10.93;;;;;;;5.56;100.00;100827.63;5009344;28;20029;-70
2022/12/25 12:36:59;;;;;;;31.45;11.70;;;;;;;5.55;100.00;100825.94;5005995;28;20026;-70
2022/12/25 12:39:32;;;;;;;24.08;10.95;;;;;;;5.64;100.00;100844.56;5006049;28;20477;-72
2022/12/25 12:41:57;;;;;;;25.30;10.75;;;;;;;5.58;100.00;100837.13;5005014;28;20554;-75
2022/12/25 12:44:29;;;;;;;28.15;12.10;;;;;;;5.55;100.00;100836.53;5025748;28;20031;-74
2022/12/25 12:46:56;;;;;;;29.35;13.32;;;;;;;5.60;100.00;100834.34;5013482;28;20121;-71
2022/12/25 12:49:27;;;;;;;33.20;12.32;;;;;;;5.59;100.00;100841.44;5014119;28;20539;-72
2022/12/25 12:52:23;;;;;;;28.67;13.02;;;;;;;5.50;100.00;100836.91;5034144;23;20042;-74
2022/12/25 12:54:55;;;;;;;32.88;11.70;;;;;;;5.54;100.00;100834.84;4962304;28;20557;-75
2022/12/25 12:57:24;;;;;;;26.75;11.40;;;;;;;5.49;100.00;100833.44;5003489;28;20542;-75
2022/12/25 12:59:49;;;;;;;30.05;12.45;;;;;;;5.55;100.00;100842.69;5003337;28;20060;-76